sensor_id;sensor_type;location;lat;lon;timestamp;pressure;altitude;pressure_sealevel;temperature;humidity
37486;BME280;23341;50.296;18.960;2023-07-24T00:02:31;51233.78;;;-144.43;98.06
37486;BME280;23341;50.296;18.960;2023-07-24T00:07:34;51261.78;;;-144.43;98.18
37486;BME280;23341;50.296;18.960;2023-07-24T00:12:38;51255.78;;;-144.43;99.04
37486;BME280;23341;50.296;18.960;2023-07-24T00:17:43;51215.78;;;-144.43;100.00
37486;BME280;23341;50.296;18.960;2023-07-24T00:22:47;51201.78;;;-144.43;100.00
37486;BME280;23341;50.296;18.960;2023-07-24T00:27:50;51255.78;;;-144.43;99.54
37486;BME280;23341;50.296;18.960;2023-07-24T00:32:55;51301.78;;;-144.43;98.57
37486;BME280;23341;50.296;18.960;2023-07-24T00:37:59;51243.78;;;-144.43;98.88
37486;BME280;23341;50.296;18.960;2023-07-24T00:43:03;51261.78;;;-144.43;98.27
37486;BME280;23341;50.296;18.960;2023-07-24T00:48:08;51297.78;;;-144.43;97.76
37486;BME280;23341;50.296;18.960;2023-07-24T00:53:15;51221.78;;;-144.43;99.02
37486;BME280;23341;50.296;18.960;2023-07-24T00:58:21;51289.78;;;-144.43;98.88
37486;BME280;23341;50.296;18.960;2023-07-24T01:03:32;51269.78;;;-144.43;98.03
37486;BME280;23341;50.296;18.960;2023-07-24T01:08:36;51245.78;;;-144.43;95.30
37486;BME280;23341;50.296;18.960;2023-07-24T01:13:43;51263.78;;;-144.43;91.19
37486;BME280;23341;50.296;18.960;2023-07-24T01:18:50;51297.78;;;-144.43;86.49
37486;BME280;23341;50.296;18.960;2023-07-24T01:23:59;51321.78;;;-144.43;82.63
37486;BME280;23341;50.296;18.960;2023-07-24T01:29:07;51313.78;;;-144.43;80.11
37486;BME280;23341;50.296;18.960;2023-07-24T01:34:11;51289.78;;;-144.43;78.29
37486;BME280;23341;50.296;18.960;2023-07-24T01:39:15;51287.78;;;-144.43;76.96
37486;BME280;23341;50.296;18.960;2023-07-24T01:44:20;51319.78;;;-144.43;76.67
37486;BME280;23341;50.296;18.960;2023-07-24T01:49:24;51281.78;;;-144.43;76.88
37486;BME280;23341;50.296;18.960;2023-07-24T01:54:27;51281.78;;;-144.43;76.76
37486;BME280;23341;50.296;18.960;2023-07-24T01:59:32;51231.78;;;-144.43;76.93
37486;BME280;23341;50.296;18.960;2023-07-24T02:04:36;51273.78;;;-144.43;77.08
37486;BME280;23341;50.296;18.960;2023-07-24T02:09:40;51225.78;;;-144.43;77.87
37486;BME280;23341;50.296;18.960;2023-07-24T02:14:45;51227.78;;;-144.43;77.91
37486;BME280;23341;50.296;18.960;2023-07-24T02:19:51;51137.81;;;-144.43;78.87
37486;BME280;23341;50.296;18.960;2023-07-24T02:24:56;51133.81;;;-144.43;80.08
37486;BME280;23341;50.296;18.960;2023-07-24T02:30:01;51117.81;;;-144.43;81.55
37486;BME280;23341;50.296;18.960;2023-07-24T02:35:06;51117.81;;;-144.43;82.15
37486;BME280;23341;50.296;18.960;2023-07-24T02:40:11;51119.81;;;-144.43;83.44
37486;BME280;23341;50.296;18.960;2023-07-24T02:45:16;51115.81;;;-144.43;83.29
37486;BME280;23341;50.296;18.960;2023-07-24T02:50:20;51179.81;;;-144.43;83.01
37486;BME280;23341;50.296;18.960;2023-07-24T02:55:24;51201.78;;;-144.43;83.39
37486;BME280;23341;50.296;18.960;2023-07-24T03:00:29;51133.81;;;-144.43;85.27
37486;BME280;23341;50.296;18.960;2023-07-24T03:10:53;51157.81;;;-144.43;85.95
37486;BME280;23341;50.296;18.960;2023-07-24T03:15:59;51203.78;;;-144.43;85.86
37486;BME280;23341;50.296;18.960;2023-07-24T03:21:03;51197.78;;;-144.43;86.58
37486;BME280;23341;50.296;18.960;2023-07-24T03:26:07;51185.81;;;-144.43;87.65
37486;BME280;23341;50.296;18.960;2023-07-24T03:31:12;51197.78;;;-144.43;89.26
37486;BME280;23341;50.296;18.960;2023-07-24T03:36:16;51201.78;;;-144.43;90.62
37486;BME280;23341;50.296;18.960;2023-07-24T03:41:20;51237.78;;;-144.43;91.10
37486;BME280;23341;50.296;18.960;2023-07-24T03:46:25;51273.78;;;-144.43;90.01
37486;BME280;23341;50.296;18.960;2023-07-24T03:51:29;51365.75;;;-144.43;89.18
37486;BME280;23341;50.296;18.960;2023-07-24T03:56:33;51345.75;;;-144.43;89.40
37486;BME280;23341;50.296;18.960;2023-07-24T04:01:38;51347.75;;;-144.43;90.17
37486;BME280;23341;50.296;18.960;2023-07-24T04:06:42;51381.75;;;-144.43;90.23
37486;BME280;23341;50.296;18.960;2023-07-24T04:11:46;51383.75;;;-144.43;91.23
37486;BME280;23341;50.296;18.960;2023-07-24T04:16:51;51421.75;;;-144.43;92.34
37486;BME280;23341;50.296;18.960;2023-07-24T04:21:54;51495.75;;;-144.43;91.76
37486;BME280;23341;50.296;18.960;2023-07-24T04:26:58;51511.75;;;-144.43;92.61
37486;BME280;23341;50.296;18.960;2023-07-24T04:32:04;51581.72;;;-144.43;92.09
37486;BME280;23341;50.296;18.960;2023-07-24T04:37:07;51615.72;;;-144.43;92.42
37486;BME280;23341;50.296;18.960;2023-07-24T04:42:11;51693.72;;;-144.43;91.90
37486;BME280;23341;50.296;18.960;2023-07-24T04:47:16;51801.72;;;-144.43;90.74
37486;BME280;23341;50.296;18.960;2023-07-24T04:52:20;51817.72;;;-144.43;90.79
37486;BME280;23341;50.296;18.960;2023-07-24T04:57:24;51821.72;;;-144.43;90.81
37486;BME280;23341;50.296;18.960;2023-07-24T05:02:29;51847.72;;;-144.43;90.46
37486;BME280;23341;50.296;18.960;2023-07-24T05:07:32;51893.72;;;-144.43;89.93
37486;BME280;23341;50.296;18.960;2023-07-24T05:12:36;51909.72;;;-144.43;90.06
37486;BME280;23341;50.296;18.960;2023-07-24T05:17:41;51929.72;;;-144.43;89.78
37486;BME280;23341;50.296;18.960;2023-07-24T05:22:45;51969.69;;;-144.43;88.97
37486;BME280;23341;50.296;18.960;2023-07-24T05:27:49;52039.69;;;-144.43;88.41
37486;BME280;23341;50.296;18.960;2023-07-24T05:32:54;52007.69;;;-144.43;87.07
37486;BME280;23341;50.296;18.960;2023-07-24T05:37:58;52045.69;;;-144.43;85.33
37486;BME280;23341;50.296;18.960;2023-07-24T05:43:01;52105.69;;;-144.43;84.70
37486;BME280;23341;50.296;18.960;2023-07-24T05:48:07;52211.72;;;-144.43;81.86
37486;BME280;23341;50.296;18.960;2023-07-24T05:53:11;52247.72;;;-144.43;80.49
37486;BME280;23341;50.296;18.960;2023-07-24T05:58:15;52305.72;;;-144.43;79.15
37486;BME280;23341;50.296;18.960;2023-07-24T06:03:20;52353.72;;;-144.43;76.62
37486;BME280;23341;50.296;18.960;2023-07-24T06:08:24;52355.72;;;-144.43;75.97
37486;BME280;23341;50.296;18.960;2023-07-24T06:13:27;52497.72;;;-144.43;71.32
37486;BME280;23341;50.296;18.960;2023-07-24T06:18:32;52427.72;;;-144.43;72.70
37486;BME280;23341;50.296;18.960;2023-07-24T06:23:36;52503.72;;;-144.43;72.86
37486;BME280;23341;50.296;18.960;2023-07-24T06:28:40;52775.75;;;-144.43;68.73
37486;BME280;23341;50.296;18.960;2023-07-24T06:33:45;53009.81;;;-144.43;65.93
37486;BME280;23341;50.296;18.960;2023-07-24T06:38:49;53203.88;;;-144.43;62.36
37486;BME280;23341;50.296;18.960;2023-07-24T06:43:52;53245.88;;;-144.43;58.63
37486;BME280;23341;50.296;18.960;2023-07-24T06:48:57;53710.03;;;-144.43;55.93
37486;BME280;23341;50.296;18.960;2023-07-24T06:54:01;53914.13;;;-144.43;55.31
37486;BME280;23341;50.296;18.960;2023-07-24T06:59:05;54270.31;;;-144.43;53.38
37486;BME280;23341;50.296;18.960;2023-07-24T07:04:10;54920.72;;;-144.43;53.05
37486;BME280;23341;50.296;18.960;2023-07-24T07:09:14;54216.28;;;-144.43;59.22
37486;BME280;23341;50.296;18.960;2023-07-24T07:14:18;54886.72;;;-144.43;59.88
37486;BME280;23341;50.296;18.960;2023-07-24T07:19:23;54552.47;;;-144.43;67.79
37486;BME280;23341;50.296;18.960;2023-07-24T07:24:27;54958.75;;;-144.43;67.01
37486;BME280;23341;50.296;18.960;2023-07-24T07:29:30;54688.56;;;-144.43;68.96
37486;BME280;23341;50.296;18.960;2023-07-24T07:34:36;54132.25;;;-144.43;71.89
37486;BME280;23341;50.296;18.960;2023-07-24T07:39:41;54842.69;;;-144.43;69.26
37486;BME280;23341;50.296;18.960;2023-07-24T07:44:45;55929.59;;;-144.43;67.04
37486;BME280;23341;50.296;18.960;2023-07-24T07:49:51;54986.78;;;-144.43;70.64
37486;BME280;23341;50.296;18.960;2023-07-24T07:54:54;53361.91;;;-144.43;78.40
37486;BME280;23341;50.296;18.960;2023-07-24T08:00:01;53437.94;;;-144.43;78.91
37486;BME280;23341;50.296;18.960;2023-07-24T08:05:08;54894.72;;;-144.43;73.45
37486;BME280;23341;50.296;18.960;2023-07-24T08:10:21;54750.63;;;-144.43;74.15
37486;BME280;23341;50.296;18.960;2023-07-24T08:15:24;54886.72;;;-144.43;73.11
37486;BME280;23341;50.296;18.960;2023-07-24T08:20:30;54954.75;;;-144.43;72.03
37486;BME280;23341;50.296;18.960;2023-07-24T08:25:33;55375.09;;;-144.43;69.52
37486;BME280;23341;50.296;18.960;2023-07-24T08:30:37;56121.78;;;-144.43;68.31
37486;BME280;23341;50.296;18.960;2023-07-24T08:35:42;55267.00;;;-144.43;70.22
37486;BME280;23341;50.296;18.960;2023-07-24T08:40:46;54954.75;;;-144.43;68.81
37486;BME280;23341;50.296;18.960;2023-07-24T08:45:50;54318.34;;;-144.43;71.75
37486;BME280;23341;50.296;18.960;2023-07-24T08:50:56;54050.19;;;-144.43;72.95
37486;BME280;23341;50.296;18.960;2023-07-24T08:56:02;54954.75;;;-144.43;70.32
37486;BME280;23341;50.296;18.960;2023-07-24T09:01:08;54772.63;;;-144.43;70.30
37486;BME280;23341;50.296;18.960;2023-07-24T09:06:13;54352.38;;;-144.43;71.43
37486;BME280;23341;50.296;18.960;2023-07-24T09:11:17;54182.28;;;-144.43;72.43
37486;BME280;23341;50.296;18.960;2023-07-24T09:16:22;54824.66;;;-144.43;70.63
37486;BME280;23341;50.296;18.960;2023-07-24T09:21:29;54364.38;;;-144.43;71.23
37486;BME280;23341;50.296;18.960;2023-07-24T09:26:33;54692.56;;;-144.43;71.66
37486;BME280;23341;50.296;18.960;2023-07-24T09:31:36;54358.38;;;-144.43;72.48
37486;BME280;23341;50.296;18.960;2023-07-24T09:36:42;54098.22;;;-144.43;73.58
37486;BME280;23341;50.296;18.960;2023-07-24T09:41:45;53930.16;;;-144.43;74.69
37486;BME280;23341;50.296;18.960;2023-07-24T09:46:52;54112.22;;;-144.43;74.40
37486;BME280;23341;50.296;18.960;2023-07-24T09:52:04;54140.25;;;-144.43;73.28
37486;BME280;23341;50.296;18.960;2023-07-24T09:57:13;53926.13;;;-144.43;73.49
37486;BME280;23341;50.296;18.960;2023-07-24T10:02:24;53920.13;;;-144.43;74.25
37486;BME280;23341;50.296;18.960;2023-07-24T10:07:31;53900.13;;;-144.43;74.24
37486;BME280;23341;50.296;18.960;2023-07-24T10:12:37;54018.19;;;-144.43;74.28
37486;BME280;23341;50.296;18.960;2023-07-24T10:17:42;53898.13;;;-144.43;74.29
37486;BME280;23341;50.296;18.960;2023-07-24T10:22:47;54012.19;;;-144.43;74.60
37486;BME280;23341;50.296;18.960;2023-07-24T10:27:52;54290.31;;;-144.43;73.44
37486;BME280;23341;50.296;18.960;2023-07-24T10:33:04;54650.56;;;-144.43;72.28
37486;BME280;23341;50.296;18.960;2023-07-24T10:38:10;54302.34;;;-144.43;71.98
37486;BME280;23341;50.296;18.960;2023-07-24T10:43:19;54568.50;;;-144.43;70.53
37486;BME280;23341;50.296;18.960;2023-07-24T10:48:25;53858.09;;;-144.43;72.36
37486;BME280;23341;50.296;18.960;2023-07-24T10:53:30;53646.03;;;-144.43;74.03
37486;BME280;23341;50.296;18.960;2023-07-24T10:58:34;53531.97;;;-144.43;74.73
37486;BME280;23341;50.296;18.960;2023-07-24T11:03:40;53289.91;;;-144.43;75.90
37486;BME280;23341;50.296;18.960;2023-07-24T11:08:52;53191.88;;;-144.43;76.92
37486;BME280;23341;50.296;18.960;2023-07-24T11:13:58;53279.88;;;-144.43;76.68
37486;BME280;23341;50.296;18.960;2023-07-24T11:19:02;53588.00;;;-144.43;74.67
37486;BME280;23341;50.296;18.960;2023-07-24T11:24:07;53566.00;;;-144.43;74.61
37486;BME280;23341;50.296;18.960;2023-07-24T11:29:12;53642.03;;;-144.43;74.41
37486;BME280;23341;50.296;18.960;2023-07-24T11:34:16;53838.09;;;-144.43;73.66
37486;BME280;23341;50.296;18.960;2023-07-24T11:39:23;54114.22;;;-144.43;71.97
37486;BME280;23341;50.296;18.960;2023-07-24T11:44:28;54352.38;;;-144.43;71.64
37486;BME280;23341;50.296;18.960;2023-07-24T11:49:34;54426.41;;;-144.43;71.74
37486;BME280;23341;50.296;18.960;2023-07-24T11:54:39;54802.66;;;-144.43;70.44
37486;BME280;23341;50.296;18.960;2023-07-24T11:59:43;55118.88;;;-144.43;69.44
37486;BME280;23341;50.296;18.960;2023-07-24T12:04:46;54890.72;;;-144.43;69.27
37486;BME280;23341;50.296;18.960;2023-07-24T12:09:52;55411.13;;;-144.43;67.63
37486;BME280;23341;50.296;18.960;2023-07-24T12:14:56;55583.25;;;-144.43;67.38
37486;BME280;23341;50.296;18.960;2023-07-24T12:19:59;55267.00;;;-144.43;68.16
37486;BME280;23341;50.296;18.960;2023-07-24T12:25:06;55313.03;;;-144.43;68.15
37486;BME280;23341;50.296;18.960;2023-07-24T12:30:10;55427.13;;;-144.43;68.33
37486;BME280;23341;50.296;18.960;2023-07-24T12:35:15;55915.56;;;-144.43;67.01
37486;BME280;23341;50.296;18.960;2023-07-24T12:40:20;55559.25;;;-144.43;67.67
37486;BME280;23341;50.296;18.960;2023-07-24T12:45:24;56109.78;;;-144.43;66.88
37486;BME280;23341;50.296;18.960;2023-07-24T12:50:28;56604.31;;;-144.43;66.56
37486;BME280;23341;50.296;18.960;2023-07-24T12:55:34;57048.84;;;-144.43;65.84
37486;BME280;23341;50.296;18.960;2023-07-24T13:00:38;56646.34;;;-144.43;66.14
37486;BME280;23341;50.296;18.960;2023-07-24T13:05:41;56884.63;;;-144.43;66.20
37486;BME280;23341;50.296;18.960;2023-07-24T13:10:47;57173.00;;;-144.43;65.88
37486;BME280;23341;50.296;18.960;2023-07-24T13:15:50;57449.38;;;-144.43;65.47
37486;BME280;23341;50.296;18.960;2023-07-24T13:20:55;57321.19;;;-144.43;65.93
37486;BME280;23341;50.296;18.960;2023-07-24T13:26:00;56720.44;;;-144.43;66.82
37486;BME280;23341;50.296;18.960;2023-07-24T13:31:11;58122.34;;;-144.43;65.44
37486;BME280;23341;50.296;18.960;2023-07-24T13:36:15;57357.25;;;-144.43;66.33
37486;BME280;23341;50.296;18.960;2023-07-24T13:41:20;56992.78;;;-144.43;67.18
37486;BME280;23341;50.296;18.960;2023-07-24T13:46:24;57845.91;;;-144.43;66.02
37486;BME280;23341;50.296;18.960;2023-07-24T13:51:27;55877.53;;;-144.43;68.65
37486;BME280;23341;50.296;18.960;2023-07-24T13:56:33;57185.00;;;-144.43;67.33
37486;BME280;23341;50.296;18.960;2023-07-24T14:01:38;56984.75;;;-144.43;67.23
37486;BME280;23341;50.296;18.960;2023-07-24T14:06:41;56672.38;;;-144.43;67.71
37486;BME280;23341;50.296;18.960;2023-07-24T14:11:47;55182.94;;;-144.43;70.70
37486;BME280;23341;50.296;18.960;2023-07-24T14:16:50;54686.56;;;-144.43;72.51
37486;BME280;23341;50.296;18.960;2023-07-24T14:21:54;54272.31;;;-144.43;73.61
37486;BME280;23341;50.296;18.960;2023-07-24T14:26:59;54136.25;;;-144.43;74.88
37486;BME280;23341;50.296;18.960;2023-07-24T14:32:04;54076.22;;;-144.43;75.02
37486;BME280;23341;50.296;18.960;2023-07-24T14:37:08;53978.16;;;-144.43;75.54
37486;BME280;23341;50.296;18.960;2023-07-24T14:42:13;53810.09;;;-144.43;76.53
37486;BME280;23341;50.296;18.960;2023-07-24T14:47:17;53786.06;;;-144.43;76.77
37486;BME280;23341;50.296;18.960;2023-07-24T14:52:20;53774.06;;;-144.43;77.42
37486;BME280;23341;50.296;18.960;2023-07-24T14:57:25;53700.03;;;-144.43;77.58
37486;BME280;23341;50.296;18.960;2023-07-24T15:02:29;53630.00;;;-144.43;77.89
37486;BME280;23341;50.296;18.960;2023-07-24T15:07:35;53630.00;;;-144.43;78.09
37486;BME280;23341;50.296;18.960;2023-07-24T15:12:40;53594.00;;;-144.43;78.50
37486;BME280;23341;50.296;18.960;2023-07-24T15:17:43;53608.00;;;-144.43;78.87
37486;BME280;23341;50.296;18.960;2023-07-24T15:22:47;53291.91;;;-144.43;81.65
37486;BME280;23341;50.296;18.960;2023-07-24T15:27:52;52777.75;;;-144.43;93.22
37486;BME280;23341;50.296;18.960;2023-07-24T15:32:56;52419.72;;;-144.43;100.00
37486;BME280;23341;50.296;18.960;2023-07-24T15:38:00;52205.69;;;-144.43;100.00
37486;BME280;23341;50.296;18.960;2023-07-24T15:43:07;52111.69;;;-144.43;100.00
37486;BME280;23341;50.296;18.960;2023-07-24T15:48:11;52157.69;;;-144.43;100.00
37486;BME280;23341;50.296;18.960;2023-07-24T15:53:19;52145.69;;;-144.43;87.53
37486;BME280;23341;50.296;18.960;2023-07-24T15:58:24;52181.69;;;-144.43;85.64
37486;BME280;23341;50.296;18.960;2023-07-24T16:03:28;52219.72;;;-144.43;87.23
37486;BME280;23341;50.296;18.960;2023-07-24T16:08:33;52457.72;;;-144.43;83.32
37486;BME280;23341;50.296;18.960;2023-07-24T16:13:40;52371.72;;;-144.43;84.42
37486;BME280;23341;50.296;18.960;2023-07-24T16:18:44;52149.69;;;-144.43;91.64
37486;BME280;23341;50.296;18.960;2023-07-24T16:23:48;52393.72;;;-144.43;87.56
37486;BME280;23341;50.296;18.960;2023-07-24T16:28:53;52859.78;;;-144.43;79.07
37486;BME280;23341;50.296;18.960;2023-07-24T16:33:57;53157.84;;;-144.43;72.54
37486;BME280;23341;50.296;18.960;2023-07-24T16:39:01;52915.78;;;-144.43;76.07
37486;BME280;23341;50.296;18.960;2023-07-24T16:44:09;52803.78;;;-144.43;81.26
37486;BME280;23341;50.296;18.960;2023-07-24T16:49:16;52753.75;;;-144.43;82.16
37486;BME280;23341;50.296;18.960;2023-07-24T16:54:20;52409.72;;;-144.43;73.63
37486;BME280;23341;50.296;18.960;2023-07-24T16:59:25;52471.72;;;-144.43;82.25
37486;BME280;23341;50.296;18.960;2023-07-24T17:04:29;52503.72;;;-144.43;83.22
37486;BME280;23341;50.296;18.960;2023-07-24T17:09:33;52515.72;;;-144.43;83.93
37486;BME280;23341;50.296;18.960;2023-07-24T17:14:38;52369.72;;;-144.43;82.86
37486;BME280;23341;50.296;18.960;2023-07-24T17:19:42;52259.72;;;-144.43;82.08
37486;BME280;23341;50.296;18.960;2023-07-24T17:24:46;52195.72;;;-144.43;79.63
37486;BME280;23341;50.296;18.960;2023-07-24T17:29:51;52177.69;;;-144.43;79.37
37486;BME280;23341;50.296;18.960;2023-07-24T17:34:56;52085.69;;;-144.43;80.27
37486;BME280;23341;50.296;18.960;2023-07-24T17:39:59;51945.69;;;-144.43;85.28
37486;BME280;23341;50.296;18.960;2023-07-24T17:45:05;51633.72;;;-144.43;100.00
37486;BME280;23341;50.296;18.960;2023-07-24T17:50:09;51909.72;;;-144.43;100.00
37486;BME280;23341;50.296;18.960;2023-07-24T17:55:13;52319.72;;;-144.43;100.00
37486;BME280;23341;50.296;18.960;2023-07-24T18:00:19;52921.78;;;-144.43;100.00
37486;BME280;23341;50.296;18.960;2023-07-24T18:05:24;53093.84;;;-144.43;100.00
37486;BME280;23341;50.296;18.960;2023-07-24T18:10:30;53013.81;;;-144.43;100.00
37486;BME280;23341;50.296;18.960;2023-07-24T18:15:35;53173.84;;;-144.43;100.00
37486;BME280;23341;50.296;18.960;2023-07-24T18:20:39;53459.94;;;-144.43;100.00
37486;BME280;23341;50.296;18.960;2023-07-24T18:25:43;53574.00;;;-144.43;100.00
37486;BME280;23341;50.296;18.960;2023-07-24T18:30:48;53658.03;;;-144.43;100.00
37486;BME280;23341;50.296;18.960;2023-07-24T18:35:52;53748.06;;;-144.43;100.00
37486;BME280;23341;50.296;18.960;2023-07-24T18:40:56;53784.06;;;-144.43;100.00
37486;BME280;23341;50.296;18.960;2023-07-24T18:46:01;53838.09;;;-144.43;100.00
37486;BME280;23341;50.296;18.960;2023-07-24T18:51:05;53916.13;;;-144.43;100.00
37486;BME280;23341;50.296;18.960;2023-07-24T18:56:11;53966.16;;;-144.43;100.00
37486;BME280;23341;50.296;18.960;2023-07-24T19:01:16;53912.13;;;-144.43;100.00
37486;BME280;23341;50.296;18.960;2023-07-24T19:06:19;53890.13;;;-144.43;100.00
37486;BME280;23341;50.296;18.960;2023-07-24T19:11:23;53894.13;;;-144.43;100.00
37486;BME280;23341;50.296;18.960;2023-07-24T19:16:29;53902.13;;;-144.43;100.00
37486;BME280;23341;50.296;18.960;2023-07-24T19:21:32;53944.16;;;-144.43;100.00
37486;BME280;23341;50.296;18.960;2023-07-24T19:26:37;53906.13;;;-144.43;100.00
37486;BME280;23341;50.296;18.960;2023-07-24T19:31:42;53938.16;;;-144.43;100.00
37486;BME280;23341;50.296;18.960;2023-07-24T19:36:46;53924.13;;;-144.43;100.00
37486;BME280;23341;50.296;18.960;2023-07-24T19:41:49;53944.16;;;-144.43;100.00
37486;BME280;23341;50.296;18.960;2023-07-24T19:46:55;53804.09;;;-144.43;100.00
37486;BME280;23341;50.296;18.960;2023-07-24T19:51:59;53720.06;;;-144.43;100.00
37486;BME280;23341;50.296;18.960;2023-07-24T19:57:04;53702.03;;;-144.43;100.00
37486;BME280;23341;50.296;18.960;2023-07-24T20:02:10;53660.03;;;-144.43;100.00
37486;BME280;23341;50.296;18.960;2023-07-24T20:07:14;53678.03;;;-144.43;100.00
37486;BME280;23341;50.296;18.960;2023-07-24T20:12:20;53692.03;;;-144.43;100.00
37486;BME280;23341;50.296;18.960;2023-07-24T20:17:25;53676.03;;;-144.43;100.00
37486;BME280;23341;50.296;18.960;2023-07-24T20:22:29;53642.03;;;-144.43;100.00
37486;BME280;23341;50.296;18.960;2023-07-24T20:27:32;53680.03;;;-144.43;100.00
37486;BME280;23341;50.296;18.960;2023-07-24T20:32:37;53618.00;;;-144.43;100.00
37486;BME280;23341;50.296;18.960;2023-07-24T20:37:42;53652.03;;;-144.43;100.00
37486;BME280;23341;50.296;18.960;2023-07-24T20:42:46;53650.03;;;-144.43;100.00
37486;BME280;23341;50.296;18.960;2023-07-24T20:47:51;53594.00;;;-144.43;100.00
37486;BME280;23341;50.296;18.960;2023-07-24T20:52:55;53586.00;;;-144.43;100.00
37486;BME280;23341;50.296;18.960;2023-07-24T20:57:59;53632.00;;;-144.43;100.00
37486;BME280;23341;50.296;18.960;2023-07-24T21:03:05;53620.00;;;-144.43;100.00
37486;BME280;23341;50.296;18.960;2023-07-24T21:08:09;53511.97;;;-144.43;100.00
37486;BME280;23341;50.296;18.960;2023-07-24T21:13:13;53566.00;;;-144.43;100.00
37486;BME280;23341;50.296;18.960;2023-07-24T21:18:18;53578.00;;;-144.43;100.00
37486;BME280;23341;50.296;18.960;2023-07-24T21:23:22;53535.97;;;-144.43;100.00
37486;BME280;23341;50.296;18.960;2023-07-24T21:28:28;53517.97;;;-144.43;100.00
37486;BME280;23341;50.296;18.960;2023-07-24T21:33:33;53501.97;;;-144.43;100.00
37486;BME280;23341;50.296;18.960;2023-07-24T21:38:38;53483.97;;;-144.43;100.00
37486;BME280;23341;50.296;18.960;2023-07-24T21:43:43;53489.97;;;-144.43;100.00
37486;BME280;23341;50.296;18.960;2023-07-24T21:48:48;53437.94;;;-144.43;100.00
37486;BME280;23341;50.296;18.960;2023-07-24T21:53:52;53471.94;;;-144.43;100.00
37486;BME280;23341;50.296;18.960;2023-07-24T21:58:55;53457.94;;;-144.43;100.00
37486;BME280;23341;50.296;18.960;2023-07-24T22:04:01;53459.94;;;-144.43;100.00
37486;BME280;23341;50.296;18.960;2023-07-24T22:09:05;53469.94;;;-144.43;100.00
37486;BME280;23341;50.296;18.960;2023-07-24T22:14:09;53457.94;;;-144.43;100.00
37486;BME280;23341;50.296;18.960;2023-07-24T22:19:14;53463.94;;;-144.43;100.00
37486;BME280;23341;50.296;18.960;2023-07-24T22:24:20;53463.94;;;-144.43;100.00
37486;BME280;23341;50.296;18.960;2023-07-24T22:29:24;53477.97;;;-144.43;100.00
37486;BME280;23341;50.296;18.960;2023-07-24T22:34:29;53411.94;;;-144.43;100.00
37486;BME280;23341;50.296;18.960;2023-07-24T22:39:33;53407.94;;;-144.43;100.00
37486;BME280;23341;50.296;18.960;2023-07-24T22:44:37;53391.94;;;-144.43;100.00
37486;BME280;23341;50.296;18.960;2023-07-24T22:49:43;53387.94;;;-144.43;100.00
37486;BME280;23341;50.296;18.960;2023-07-24T22:54:46;53447.94;;;-144.43;100.00
37486;BME280;23341;50.296;18.960;2023-07-24T22:59:50;53365.91;;;-144.43;100.00
37486;BME280;23341;50.296;18.960;2023-07-24T23:04:55;53365.91;;;-144.43;100.00
37486;BME280;23341;50.296;18.960;2023-07-24T23:09:59;53381.91;;;-144.43;100.00
37486;BME280;23341;50.296;18.960;2023-07-24T23:15:03;53337.91;;;-144.43;100.00
37486;BME280;23341;50.296;18.960;2023-07-24T23:20:09;53375.91;;;-144.43;100.00
37486;BME280;23341;50.296;18.960;2023-07-24T23:25:13;53385.91;;;-144.43;100.00
37486;BME280;23341;50.296;18.960;2023-07-24T23:30:17;53397.94;;;-144.43;100.00
37486;BME280;23341;50.296;18.960;2023-07-24T23:35:22;53413.94;;;-144.43;100.00
37486;BME280;23341;50.296;18.960;2023-07-24T23:40:26;53393.94;;;-144.43;100.00
37486;BME280;23341;50.296;18.960;2023-07-24T23:45:31;53407.94;;;-144.43;100.00
37486;BME280;23341;50.296;18.960;2023-07-24T23:50:36;53375.91;;;-144.43;100.00
37486;BME280;23341;50.296;18.960;2023-07-24T23:55:40;53379.91;;;-144.43;100.00
